Terminal Aerodrome Forecast
Issued by NWS Pueblo, CO

Home | Current Version | Previous Version | Text Only | Print | Product List | Glossary On
Versions: 1 2 3 4 5 6 7 8 9 10 11 12 13 14 15 16 17 18 19
000
FTUS45 KPUB 242331
TAFCOS
TAF
KCOS 242331Z 2500/2524 05006KT P6SM VCTS SCT090CB BKN200
      TEMPO 2500/2502 VRB15G35KT -TSRA BKN090CB
     FM250300 15009KT P6SM SCT100 BKN200
     FM250500 02007KT P6SM SCT100 SCT200
     FM251400 20006KT P6SM SCT120 BKN200
     FM252000 20011KT P6SM VCTS SCT070CB BKN200=

USA.gov is the U.S. government's official web portal to all federal, state and local government web resources and services.